Flight Track Log - Related Links

Times and Time Zones

All times are in EDT time to prevent confusion due to time zone crossing. See the N825ST flight status page for this flight to view local times or setup timezone preferences in your user account.

Time Position Orientation Groundspeed Altitude Reporting Facility
EDT Latitude Longitude Course Direction KTS MPH feet Rate Location/Type
Sat 07:02:54 PM 37.8458 -89.3433 331° Northwest 168 193 4,900  Level Kansas City Center
Sat 07:03:55 PM 37.8869 -89.3717 331° Northwest 168 193 6,900 1,951 Climbing Kansas City Center
Sat 07:04:57 PM 37.9258 -89.3975 332° Northwest 149 171 8,900 1,742 Climbing Kansas City Center
Sat 07:05:00 PM 38.0950 -89.4749 332° Northwest  Level Estimated
Sat 07:05:59 PM 37.9600 -89.4211 331° Northwest 142 163 10,500  Level Kansas City Center
Sat 07:06:00 PM 38.1477 -89.5122 332° Northwest  Level Estimated
Sat 07:07:00 PM 38.2005 -89.5496 331° Northwest  Level Estimated
Sat 07:07:00 PM 37.9950 -89.4475 329° Northwest 147 169 12,300  Level Kansas City Center
Sat 07:08:00 PM 38.2533 -89.5869 331° Northwest  Level FlightAware Approximate
Sat 07:08:02 PM 38.0353 -89.4739 333° Northwest 152 175 14,200  Level Kansas City Center
Sat 07:09:03 PM 38.0719 -89.5000 331° Northwest 153 176 15,900 1,561 Climbing Kansas City Center
Sat 07:10:05 PM 38.1089 -89.5258 331° Northwest 153 176 17,400 1,463 Climbing Kansas City Center
Sat 07:11:06 PM 38.1461 -89.5528 330° Northwest 148 170 18,900 1,475 Climbing Kansas City Center
Sat 07:12:07 PM 38.1828 -89.5775 332° Northwest 149 171 20,400 1,317 Climbing Kansas City Center
Sat 07:13:09 PM 38.2178 -89.6022 331° Northwest 145 167 21,600 1,024 Climbing Kansas City Center
Sat 07:14:10 PM 38.2553 -89.6300 330° Northwest 154 177 22,500 976 Climbing Kansas City Center
Sat 07:15:12 PM 38.2961 -89.6583 331° Northwest 166 191 23,600 1,073 Climbing Kansas City Center
Sat 07:16:13 PM 38.3364 -89.6844 333° Northwest 163 188 24,700 1,024 Climbing Kansas City Center
Sat 07:17:15 PM 38.3725 -89.7114 330° Northwest 154 177 25,700 634 Climbing Kansas City Center
Sat 07:18:16 PM 38.4108 -89.7408 329° Northwest 158 182 26,000 146 Climbing Kansas City Center
Sat 07:19:18 PM 38.4675 -89.7814 331° Northwest 185 213 26,000  Level Kansas City Center
Sat 07:20:19 PM 38.5214 -89.8178 332° Northwest 209 241 26,000  Level Kansas City Center
Sat 07:21:21 PM 38.5756 -89.8550 332° Northwest 220 253 26,000  Level Kansas City Center
Sat 07:22:22 PM 38.6297 -89.8931 331° Northwest 222 255 26,000  Level Kansas City Center
Sat 07:23:24 PM 38.6844 -89.9317 331° Northwest 224 258 26,000  Level Kansas City Center
Sat 07:24:25 PM 38.7389 -89.9717 330° Northwest 225 259 26,000  Level Kansas City Center
Sat 07:25:27 PM 38.8028 -90.0161 332° Northwest 227 261 26,000  Level Kansas City Center
Sat 07:26:28 PM 38.8572 -90.0589 329° Northwest 229 264 26,000  Level Kansas City Center
Sat 07:27:30 PM 38.9147 -90.0978 332° Northwest 230 265 26,000  Level Kansas City Center
Sat 07:28:31 PM 38.9689 -90.1394 329° Northwest 227 261 26,000  Level Kansas City Center
Sat 07:29:33 PM 39.0250 -90.1783 332° Northwest 229 264 26,000  Level Kansas City Center
Sat 07:30:34 PM 39.0794 -90.2194 330° Northwest 229 264 26,000  Level Kansas City Center
Sat 07:31:36 PM 39.1347 -90.2586 331° Northwest 229 264 26,000  Level Kansas City Center
Sat 07:32:37 PM 39.2003 -90.3072 330° Northwest 227 261 26,000  Level Kansas City Center
Sat 07:33:39 PM 39.2561 -90.3469 331° Northwest 229 264 26,000  Level Kansas City Center
Sat 07:34:40 PM 39.3106 -90.3881 330° Northwest 228 262 26,000  Level Kansas City Center
Sat 07:35:41 PM 39.3669 -90.4283 331° Northwest 230 265 26,000  Level Kansas City Center
Sat 07:36:43 PM 39.4222 -90.4697 330° Northwest 231 266 26,000  Level Kansas City Center
Sat 07:37:44 PM 39.4792 -90.5103 331° Northwest 233 268 26,000  Level Kansas City Center
Sat 07:38:46 PM 39.5344 -90.5525 330° Northwest 232 267 26,000  Level Kansas City Center
Sat 07:39:47 PM 39.5886 -90.5928 330° Northwest 228 262 26,000  Level Kansas City Center
Sat 07:40:49 PM 39.6547 -90.6406 331° Northwest 227 261 26,000  Level Kansas City Center
Sat 07:41:50 PM 39.7086 -90.6822 329° Northwest 225 259 26,000  Level Kansas City Center
Sat 07:42:52 PM 39.7586 -90.7181 331° Northwest 226 260 26,000  Level Kansas City Center
Sat 07:43:53 PM 39.8131 -90.7600 329° Northwest 226 260 26,000  Level Kansas City Center
Sat 07:44:54 PM 39.8681 -90.7978 332° Northwest 224 258 26,000  Level Kansas City Center
Sat 07:45:56 PM 39.9333 -90.8486 329° Northwest 225 259 26,000  Level Kansas City Center
Sat 07:46:57 PM 39.9878 -90.8883 331° Northwest 224 258 26,000  Level Kansas City Center
Sat 07:47:59 PM 40.0411 -90.9286 330° Northwest 222 255 26,000  Level Kansas City Center
Sat 07:49:00 PM 40.0917 -90.9653 331° Northwest 223 257 26,000  Level Kansas City Center
Sat 07:50:02 PM 40.1442 -91.0056 330° Northwest 221 254 26,000  Level Kansas City Center
Sat 07:51:03 PM 40.2072 -91.0547 329° Northwest 221 254 26,000  Level Kansas City Center
Sat 07:52:04 PM 40.2608 -91.0942 331° Northwest 223 257 26,000  Level Kansas City Center
Sat 07:53:06 PM 40.3092 -91.1303 330° Northwest 221 254 26,000  Level Kansas City Center
Sat 07:54:07 PM 40.3628 -91.1719 329° Northwest 222 255 26,000  Level Kansas City Center
Sat 07:55:09 PM 40.4194 -91.2144 330° Northwest 228 262 26,000  Level Kansas City Center
Sat 07:56:10 PM 40.4856 -91.2653 330° Northwest 230 265 26,000  Level Kansas City Center
Sat 07:57:11 PM 40.5314 -91.3003 330° Northwest 227 261 26,000  Level Kansas City Center
Sat 07:58:13 PM 40.5978 -91.3500 330° Northwest 230 265 26,000  Level Kansas City Center
Sat 07:59:14 PM 40.6517 -91.3925 329° Northwest 230 265 26,000  Level Kansas City Center
Sat 08:00:15 PM 40.7083 -91.4333 331° Northwest 231 266 26,000  Level Kansas City Center
Sat 08:01:17 PM 40.7611 -91.4742 330° Northwest 228 262 26,000  Level Kansas City Center
Sat 08:02:30 PM 40.8269 -91.5256 329° Northwest 226 260 26,000  Level Chicago Center
Sat 08:03:31 PM 40.8817 -91.5689 329° Northwest 229 264 26,000  Level Chicago Center
Sat 08:04:32 PM 40.9369 -91.6094 331° Northwest 229 264 26,000  Level Chicago Center
Sat 08:05:33 PM 40.9936 -91.6550 329° Northwest 231 266 26,000  Level Chicago Center
Sat 08:06:34 PM 41.0556 -91.7033 330° Northwest 226 260 26,000  Level Chicago Center
Sat 08:07:36 PM 41.1094 -91.7447 330° Northwest 228 262 26,000  Level Chicago Center
Sat 08:08:37 PM 41.1636 -91.7861 330° Northwest 227 261 26,000  Level Chicago Center
Sat 08:09:38 PM 41.2178 -91.8283 330° Northwest 228 262 26,000  Level Chicago Center
Sat 08:10:39 PM 41.2714 -91.8692 330° Northwest 226 260 26,000  Level Chicago Center
Sat 08:11:40 PM 41.3244 -91.9128 328° Northwest 224 258 26,000  Level Chicago Center
Sat 08:12:42 PM 41.3894 -91.9614 331° Northwest 225 259 26,000  Level Chicago Center
Sat 08:13:43 PM 41.4417 -92.0058 327° Northwest 225 259 26,000  Level Chicago Center
Sat 08:14:44 PM 41.4961 -92.0469 331° Northwest 225 259 26,000  Level Chicago Center
Sat 08:15:45 PM 41.5497 -92.0900 329° Northwest 226 260 26,000  Level Chicago Center
Sat 08:16:46 PM 41.6028 -92.1322 329° Northwest 224 258 26,000  Level Chicago Center
Sat 08:17:47 PM 41.6556 -92.1739 329° Northwest 222 255 26,000  Level Chicago Center
Sat 08:18:48 PM 41.7089 -92.2144 330° Northwest 222 255 26,000  Level Chicago Center
Sat 08:19:49 PM 41.7625 -92.2572 329° Northwest 224 258 26,000  Level Chicago Center
Sat 08:20:50 PM 41.8142 -92.3006 328° Northwest 221 254 26,000  Level Chicago Center
Sat 08:21:52 PM 41.8781 -92.3497 330° Northwest 222 255 26,000  Level Chicago Center
Sat 08:22:53 PM 41.9303 -92.3914 329° Northwest 221 254 26,000  Level Chicago Center
Sat 08:23:54 PM 41.9808 -92.4311 330° Northwest 215 247 26,000  Level Chicago Center
Sat 08:24:55 PM 42.0347 -92.4731 330° Northwest 221 254 26,000  Level Chicago Center
Sat 08:25:56 PM 42.0864 -92.5156 329° Northwest 220 253 26,000  Level Chicago Center
Sat 08:26:57 PM 42.1397 -92.5594 329° Northwest 223 257 26,000  Level Chicago Center
Sat 08:27:58 PM 42.1922 -92.6025 329° Northwest 222 255 26,000  Level Chicago Center
Sat 08:28:59 PM 42.2444 -92.6458 328° Northwest 221 254 26,000  Level Chicago Center
Sat 08:30:00 PM 42.2983 -92.6883 330° Northwest 224 258 26,000  Level Chicago Center
Sat 08:31:01 PM 42.3614 -92.7392 329° Northwest 222 255 26,000  Level Chicago Center
Sat 08:32:02 PM 42.4136 -92.7828 328° Northwest 222 255 26,000  Level Chicago Center
Sat 08:33:03 PM 42.4669 -92.8261 329° Northwest 223 257 26,000  Level Chicago Center
Sat 08:34:04 PM 42.5197 -92.8686 329° Northwest 223 257 26,000  Level Chicago Center
Sat 08:35:05 PM 42.5714 -92.9150 327° Northwest 223 257 26,000  Level Chicago Center
Sat 08:36:06 PM 42.6258 -92.9542 332° Northwest 223 257 26,000  Level Chicago Center
Sat 08:37:08 PM 42.6772 -92.9997 327° Northwest 221 254 26,000  Level Chicago Center
Sat 08:39:10 PM 42.7822 -93.0889 328° Northwest 224 258 26,000  Level Chicago Center
Sat 08:40:11 PM 42.8464 -93.1372 331° Northwest 221 254 26,000  Level Chicago Center
Sat 08:41:12 PM 42.8964 -93.1828 326° Northwest 218 251 26,000  Level Chicago Center
Sat 08:42:13 PM 42.9500 -93.2244 330° Northwest 221 254 26,000  Level Chicago Center
Sat 08:43:15 PM 43.0011 -93.2708 326° Northwest 223 257 26,000  Level Chicago Center
Sat 08:44:16 PM 43.0536 -93.3117 330° Northwest 220 253 26,000  Level Chicago Center
Sat 08:45:25 PM 43.1158 -93.3661 327° Northwest 221 254 26,000  Level Minneapolis Center
Sat 08:46:26 PM 43.1697 -93.4078 331° Northwest 224 258 26,000  Level Minneapolis Center
Sat 08:47:27 PM 43.2208 -93.4542 327° Northwest 222 255 26,000  Level Minneapolis Center
Sat 08:48:29 PM 43.2744 -93.4972 330° Northwest 223 257 26,000  Level Minneapolis Center
Sat 08:49:30 PM 43.3261 -93.5422 328° Northwest 223 257 26,000  Level Minneapolis Center
Sat 08:50:32 PM 43.3783 -93.5878 328° Northwest 223 257 26,000  Level Minneapolis Center
Sat 08:51:33 PM 43.4403 -93.6414 328° Northwest 222 255 26,000  Level Minneapolis Center
Sat 08:52:34 PM 43.4919 -93.6850 329° Northwest 221 254 26,000  Level Minneapolis Center
Sat 08:53:36 PM 43.5444 -93.7297 328° Northwest 221 254 26,000  Level Minneapolis Center
Sat 08:54:37 PM 43.5989 -93.7714 331° Northwest 220 253 26,000  Level Minneapolis Center
Sat 08:55:38 PM 43.6506 -93.8178 327° Northwest 221 254 26,000  Level Minneapolis Center
Sat 08:56:40 PM 43.7019 -93.8614 328° Northwest 219 252 26,000  Level Minneapolis Center
Sat 08:57:41 PM 43.7536 -93.9050 329° Northwest 218 251 26,000  Level Minneapolis Center
Sat 08:58:43 PM 43.8050 -93.9500 328° Northwest 218 251 26,000  Level Minneapolis Center
Sat 08:59:44 PM 43.8667 -94.0036 328° Northwest 219 252 26,000  Level Minneapolis Center
Sat 09:00:45 PM 43.9181 -94.0481 328° Northwest 219 252 26,000  Level Minneapolis Center
Sat 09:01:46 PM 43.9697 -94.0914 329° Northwest 219 252 26,000  Level Minneapolis Center
Sat 09:02:48 PM 44.0206 -94.1364 328° Northwest 217 250 26,000  Level Minneapolis Center
Sat 09:03:49 PM 44.0725 -94.1803 329° Northwest 217 250 26,000  Level Minneapolis Center
Sat 09:04:50 PM 44.1225 -94.2256 327° Northwest 216 249 26,000  Level Minneapolis Center
Sat 09:05:52 PM 44.1736 -94.2683 329° Northwest 215 247 26,000  Level Minneapolis Center
Sat 09:06:53 PM 44.2236 -94.3136 327° Northwest 214 246 26,000  Level Minneapolis Center
Sat 09:07:54 PM 44.2747 -94.3558 329° Northwest 214 246 26,000  Level Minneapolis Center
Sat 09:08:55 PM 44.3244 -94.4017 327° Northwest 214 246 26,000  Level Minneapolis Center
Sat 09:09:57 PM 44.3842 -94.4564 327° Northwest 214 246 26,000  Level Minneapolis Center
Sat 09:10:58 PM 44.4361 -94.4983 330° Northwest 215 247 26,000  Level Minneapolis Center
Sat 09:11:59 PM 44.4858 -94.5442 327° Northwest 215 247 26,000  Level Minneapolis Center
Sat 09:13:00 PM 44.5356 -94.5872 328° Northwest 213 245 26,000  Level Minneapolis Center
Sat 09:14:02 PM 44.5858 -94.6317 328° Northwest 213 245 26,000  Level Minneapolis Center
Sat 09:15:03 PM 44.6314 -94.6722 328° Northwest 214 246 26,000  Level Minneapolis Center
Sat 09:16:04 PM 44.6917 -94.7267 327° Northwest 215 247 26,000  Level Minneapolis Center
Sat 09:17:05 PM 44.7422 -94.7717 328° Northwest 215 247 26,000  Level Minneapolis Center
Sat 09:18:06 PM 44.7925 -94.8161 328° Northwest 215 247 26,000  Level Minneapolis Center
Sat 09:19:07 PM 44.8431 -94.8628 328° Northwest 217 250 26,000  Level Minneapolis Center
Sat 09:20:00 PM 44.8885 -94.9026 328° Northwest  Level FlightAware Approximate
Sat 09:20:08 PM 44.8936 -94.9064 329° Northwest 215 247 26,000  Level Minneapolis Center
Sat 09:21:09 PM 44.9431 -94.9531 326° Northwest 215 247 26,000  Level Minneapolis Center
Sat 09:22:11 PM 44.9944 -94.9975 329° Northwest 216 249 26,000  Level Minneapolis Center
Sat 09:23:12 PM 45.0436 -95.0450 326° Northwest 215 247 26,000  Level Minneapolis Center
Sat 09:24:13 PM 45.0947 -95.0889 329° Northwest 216 249 26,000  Level Minneapolis Center
Sat 09:25:14 PM 45.1558 -95.1472 326° Northwest 219 252 26,000  Level Minneapolis Center
Sat 09:26:15 PM 45.2064 -95.1900 329° Northwest 216 249 26,000  Level Minneapolis Center
Sat 09:27:16 PM 45.2531 -95.2353 326° Northwest 208 239 26,000  Level Minneapolis Center
Sat 09:28:17 PM 45.2992 -95.2772 327° Northwest 202 232 26,000  Level Minneapolis Center
Sat 09:29:18 PM 45.3456 -95.3208 327° Northwest 200 230 26,000  Level Minneapolis Center
Sat 09:30:19 PM 45.3931 -95.3617 329° Northwest 200 230 26,000  Level Minneapolis Center
Sat 09:31:20 PM 45.4381 -95.4056 326° Northwest 199 229 26,000  Level Minneapolis Center
Sat 09:32:21 PM 45.4861 -95.4483 328° Northwest 202 232 26,000  Level Minneapolis Center
Sat 09:33:22 PM 45.5322 -95.4922 326° Northwest 202 232 26,000  Level Minneapolis Center
Sat 09:34:23 PM 45.5792 -95.5353 327° Northwest 201 231 26,000  Level Minneapolis Center
Sat 09:35:24 PM 45.6261 -95.5783 327° Northwest 201 231 26,000  Level Minneapolis Center
Sat 09:36:25 PM 45.6828 -95.6303 327° Northwest 202 232 26,000  Level Minneapolis Center
Sat 09:37:26 PM 45.7292 -95.6747 326° Northwest 202 232 26,000  Level Minneapolis Center
Sat 09:38:27 PM 45.7767 -95.7181 328° Northwest 202 232 26,000  Level Minneapolis Center
Sat 09:39:28 PM 45.8239 -95.7631 326° Northwest 204 235 26,000  Level Minneapolis Center
Sat 09:40:29 PM 45.8722 -95.8078 327° Northwest 207 238 26,000  Level Minneapolis Center
Sat 09:41:30 PM 45.9178 -95.8550 324° Northwest 203 234 26,000  Level Minneapolis Center
Sat 09:42:30 PM 45.9661 -95.8981 328° Northwest 204 235 26,000 -446 Level Minneapolis Center
Sat 09:43:31 PM 46.0150 -95.9447 326° Northwest 211 243 25,100 -984 Descending Minneapolis Center
Sat 09:44:32 PM 46.0694 -95.9964 327° Northwest 232 267 24,000 -1,033 Descending Minneapolis Center
Sat 09:45:33 PM 46.1219 -96.0425 329° Northwest 224 258 23,000 -1,033 Descending Minneapolis Center
Sat 09:46:34 PM 46.1722 -96.0942 325° Northwest 224 258 21,900 -1,140 Descending Minneapolis Center
Sat 09:47:34 PM 46.2303 -96.1458 328° Northwest 224 258 20,700 -1,140 Descending Minneapolis Center
Sat 09:48:35 PM 46.2797 -96.1969 324° Northwest 221 254 19,600 -1,230 Descending Minneapolis Center
Sat 09:49:36 PM 46.3331 -96.2450 328° Northwest 218 251 18,200 -1,426 Descending Minneapolis Center
Sat 09:50:37 PM 46.3875 -96.3003 325° Northwest 227 261 16,700 -1,289 Descending Minneapolis Center
Sat 09:51:37 PM 46.4367 -96.3506 325° Northwest 224 258 15,600 -1,091 Descending Minneapolis Center
Sat 09:52:38 PM 46.4836 -96.4089 319° Northwest 215 247 14,500 -1,426 Descending Minneapolis Center
Sat 09:53:39 PM 46.5325 -96.4689 320° Northwest 221 254 12,700 -1,770 Descending Minneapolis Center
Sat 09:54:40 PM 46.5808 -96.5267 321° Northwest 230 265 10,900 -1,884 Descending Minneapolis Center
Sat 09:55:40 PM 46.6322 -96.5906 320° Northwest 233 268 8,900 -2,083 Descending Minneapolis Center
Sat 09:56:41 PM 46.6792 -96.6450 321° Northwest 226 260 6,700 -1,918 Descending Minneapolis Center
Sat 09:57:42 PM 46.7217 -96.7017 318° Northwest 206 237 5,000 -1,475 Descending Minneapolis Center
Sat 09:58:43 PM 46.7633 -96.7511 321° Northwest 200 230 3,700 -1,041 Descending Minneapolis Center
Sat 09:59:43 PM 46.8031 -96.7944 323° Northwest 171 197 2,900 -694 Descending Minneapolis Center
Sat 10:00:44 PM 46.8417 -96.8172 338° Northwest 145 167 2,300 -639 Descending Minneapolis Center
Sat 10:01:45 PM 46.8817 -96.8167 North 150 173 1,600 -689 Descending Minneapolis Center

Login

Don't have an account? Register now (free) for customized features, flight alerts, and more!